Terminal Aerodrome Forecast
Issued by NWS

Home | Current Version | Previous Version | Text Only | Print | Product List | Glossary Off
Versions: 1 2 3 4 5 6 7 8 9 10 11 12 13 14 15 16

000
FTUS43 KIWX 261130
TAFSBN
TAF
KSBN 261130Z 2612/2712 27003KT P6SM SCT025 OVC035
      TEMPO 2612/2614 BKN025
     FM261400 33010KT P6SM BKN030
     FM262300 34004KT P6SM SCT035
     FM270700 00000KT 6SM BR FEW035=

USA.gov is the U.S. government's official web portal to all federal, state and local government web resources and services.